<?xml version="1.0" encoding="utf-8"?>
<gpx xmlns:xsi="http://www.w3.org/2001/XMLSchema-instance" xmlns:xsd="http://www.w3.org/2001/XMLSchema" version="1.1" creator="Shapelink.com" xmlns="http://www.topografix.com/GPX/1/1" xmlns:gpxtpx="http://www.garmin.com/xmlschemas/TrackPointExtension/v1">
  <metadata>
    <name>Övrigt 2.56 km, 2020-07-31</name>
    <desc></desc>
    <author><name>Marian Moron</name></author> 
    <time>2020-07-31T20:15:45Z</time>
  </metadata>
  <trk>
    <name>Övrigt 2.56 km, 2020-07-31</name>
    <trkseg>
      <trkpt lat="51.229978256101" lon="4.458233200666">
        <ele>0</ele>
        <time>2020-07-31T20:15:45Z</time>
      </trkpt>
      <trkpt lat="51.229985967449" lon="4.458525896614">
        <ele>0</ele>
        <time>2020-07-31T20:16:09Z</time>
      </trkpt>
      <trkpt lat="51.230057045961" lon="4.458844157357">
        <ele>0</ele>
        <time>2020-07-31T20:16:32Z</time>
      </trkpt>
      <trkpt lat="51.230186713954" lon="4.458978351576">
        <ele>0</ele>
        <time>2020-07-31T20:16:53Z</time>
      </trkpt>
      <trkpt lat="51.230362398578" lon="4.458920097371">
        <ele>0</ele>
        <time>2020-07-31T20:17:25Z</time>
      </trkpt>
      <trkpt lat="51.230498772091" lon="4.459599282728">
        <ele>0</ele>
        <time>2020-07-31T20:18:16Z</time>
      </trkpt>
      <trkpt lat="51.230491815114" lon="4.459688466144">
        <ele>0</ele>
        <time>2020-07-31T20:18:25Z</time>
      </trkpt>
      <trkpt lat="51.230578400141" lon="4.459852751384">
        <ele>0</ele>
        <time>2020-07-31T20:18:44Z</time>
      </trkpt>
      <trkpt lat="51.230704380098" lon="4.460502348634">
        <ele>0</ele>
        <time>2020-07-31T20:19:41Z</time>
      </trkpt>
      <trkpt lat="51.230692729257" lon="4.460601003597">
        <ele>0</ele>
        <time>2020-07-31T20:19:58Z</time>
      </trkpt>
      <trkpt lat="51.230260558493" lon="4.460793787297">
        <ele>0</ele>
        <time>2020-07-31T20:20:35Z</time>
      </trkpt>
      <trkpt lat="51.229807852074" lon="4.460915995399">
        <ele>5.2</ele>
        <time>2020-07-31T20:21:14Z</time>
      </trkpt>
      <trkpt lat="51.229748256765" lon="4.461064522667">
        <ele>10.8</ele>
        <time>2020-07-31T20:21:43Z</time>
      </trkpt>
      <trkpt lat="51.229820508743" lon="4.461187568959">
        <ele>8.8</ele>
        <time>2020-07-31T20:22:03Z</time>
      </trkpt>
      <trkpt lat="51.22998756001" lon="4.461851080163">
        <ele>0</ele>
        <time>2020-07-31T20:22:50Z</time>
      </trkpt>
      <trkpt lat="51.230025530017" lon="4.461946130909">
        <ele>0</ele>
        <time>2020-07-31T20:23:00Z</time>
      </trkpt>
      <trkpt lat="51.230207501066" lon="4.462600924937">
        <ele>6.8</ele>
        <time>2020-07-31T20:23:37Z</time>
      </trkpt>
      <trkpt lat="51.230296349206" lon="4.462989174545">
        <ele>8</ele>
        <time>2020-07-31T20:24:05Z</time>
      </trkpt>
      <trkpt lat="51.230456862591" lon="4.46367774763">
        <ele>1.4</ele>
        <time>2020-07-31T20:24:47Z</time>
      </trkpt>
      <trkpt lat="51.230627685713" lon="4.464307647415">
        <ele>3.4</ele>
        <time>2020-07-31T20:25:25Z</time>
      </trkpt>
      <trkpt lat="51.230826169105" lon="4.464938469209">
        <ele>13</ele>
        <time>2020-07-31T20:26:00Z</time>
      </trkpt>
      <trkpt lat="51.23084083743" lon="4.465105855752">
        <ele>11.4</ele>
        <time>2020-07-31T20:26:11Z</time>
      </trkpt>
      <trkpt lat="51.230842010896" lon="4.465837176527">
        <ele>5</ele>
        <time>2020-07-31T20:26:43Z</time>
      </trkpt>
      <trkpt lat="51.230871179908" lon="4.46624428541">
        <ele>4.2</ele>
        <time>2020-07-31T20:27:02Z</time>
      </trkpt>
      <trkpt lat="51.230817787205" lon="4.466433883988">
        <ele>8.2</ele>
        <time>2020-07-31T20:27:18Z</time>
      </trkpt>
      <trkpt lat="51.230846956217" lon="4.466636725968">
        <ele>10.8</ele>
        <time>2020-07-31T20:27:33Z</time>
      </trkpt>
      <trkpt lat="51.230825079458" lon="4.467187584436">
        <ele>9.8</ele>
        <time>2020-07-31T20:28:01Z</time>
      </trkpt>
      <trkpt lat="51.230823905992" lon="4.467281713173">
        <ele>8</ele>
        <time>2020-07-31T20:28:11Z</time>
      </trkpt>
      <trkpt lat="51.230815943187" lon="4.467449518811">
        <ele>0.4</ele>
        <time>2020-07-31T20:28:41Z</time>
      </trkpt>
      <trkpt lat="51.231106459841" lon="4.46732471232">
        <ele>0</ele>
        <time>2020-07-31T20:29:13Z</time>
      </trkpt>
      <trkpt lat="51.231191955221" lon="4.466952472141">
        <ele>0</ele>
        <time>2020-07-31T20:29:37Z</time>
      </trkpt>
      <trkpt lat="51.231480963133" lon="4.466399434379">
        <ele>0</ele>
        <time>2020-07-31T20:30:18Z</time>
      </trkpt>
      <trkpt lat="51.23164969078" lon="4.465908422677">
        <ele>0</ele>
        <time>2020-07-31T20:30:45Z</time>
      </trkpt>
      <trkpt lat="51.231861249936" lon="4.465565602967">
        <ele>0</ele>
        <time>2020-07-31T20:31:11Z</time>
      </trkpt>
      <trkpt lat="51.231874996252" lon="4.465543726208">
        <ele>0</ele>
        <time>2020-07-31T20:31:13Z</time>
      </trkpt>
      <trkpt lat="51.231947583506" lon="4.465333089061">
        <ele>0</ele>
        <time>2020-07-31T20:31:30Z</time>
      </trkpt>
      <trkpt lat="51.232010028661" lon="4.465139886266">
        <ele>0</ele>
        <time>2020-07-31T20:31:45Z</time>
      </trkpt>
      <trkpt lat="51.232275315796" lon="4.464554913465">
        <ele>0</ele>
        <time>2020-07-31T20:32:22Z</time>
      </trkpt>
      <trkpt lat="51.23236550504" lon="4.463851672055">
        <ele>0</ele>
        <time>2020-07-31T20:33:03Z</time>
      </trkpt>
      <trkpt lat="51.232270957208" lon="4.463147005722">
        <ele>0</ele>
        <time>2020-07-31T20:33:41Z</time>
      </trkpt>
      <trkpt lat="51.232094937308" lon="4.462923711906">
        <ele>0</ele>
        <time>2020-07-31T20:36:28Z</time>
      </trkpt>
      <trkpt lat="51.23208722596" lon="4.462964531759">
        <ele>0</ele>
        <time>2020-07-31T20:36:31Z</time>
      </trkpt>
      <trkpt lat="51.232089237616" lon="4.463061594161">
        <ele>0</ele>
        <time>2020-07-31T20:36:40Z</time>
      </trkpt>
      <trkpt lat="51.232068869599" lon="4.463210540524">
        <ele>0</ele>
        <time>2020-07-31T20:36:52Z</time>
      </trkpt>
      <trkpt lat="51.231989576825" lon="4.463441545688">
        <ele>4.8</ele>
        <time>2020-07-31T20:37:31Z</time>
      </trkpt>
      <trkpt lat="51.231906679834" lon="4.463579427943">
        <ele>2</ele>
        <time>2020-07-31T20:37:44Z</time>
      </trkpt>
      <trkpt lat="51.231825543042" lon="4.463581942513">
        <ele>0</ele>
        <time>2020-07-31T20:37:57Z</time>
      </trkpt>
      <trkpt lat="51.231652540626" lon="4.46341623235">
        <ele>0</ele>
        <time>2020-07-31T20:38:18Z</time>
      </trkpt>
      <trkpt lat="51.231233445626" lon="4.4631689663">
        <ele>0</ele>
        <time>2020-07-31T20:39:19Z</time>
      </trkpt>
      <trkpt lat="51.231188518642" lon="4.463139462012">
        <ele>0</ele>
        <time>2020-07-31T20:39:25Z</time>
      </trkpt>
      <trkpt lat="51.231091875335" lon="4.463243900486">
        <ele>0</ele>
        <time>2020-07-31T20:39:44Z</time>
      </trkpt>
      <trkpt lat="51.231066729635" lon="4.463250857463">
        <ele>0</ele>
        <time>2020-07-31T20:39:46Z</time>
      </trkpt>
      <trkpt lat="51.230614274673" lon="4.463369126072">
        <ele>2.4</ele>
        <time>2020-07-31T20:40:26Z</time>
      </trkpt>
      <trkpt lat="51.230351418289" lon="4.463551264759">
        <ele>4.6</ele>
        <time>2020-07-31T20:40:57Z</time>
      </trkpt>
      <trkpt lat="51.230132483061" lon="4.464092567861">
        <ele>0</ele>
        <time>2020-07-31T20:42:42Z</time>
      </trkpt>
      <trkpt lat="51.230050675717" lon="4.464183595295">
        <ele>0.8</ele>
        <time>2020-07-31T20:42:53Z</time>
      </trkpt>
      <trkpt lat="51.229831740489" lon="4.464250063762">
        <ele>4</ele>
        <time>2020-07-31T20:43:21Z</time>
      </trkpt>
      <trkpt lat="51.229690924569" lon="4.464193569756">
        <ele>12.2</ele>
        <time>2020-07-31T20:43:44Z</time>
      </trkpt>
      <trkpt lat="51.229576427815" lon="4.464218044904">
        <ele>13.8</ele>
        <time>2020-07-31T20:44:04Z</time>
      </trkpt>
      <trkpt lat="51.229187759112" lon="4.464371266036">
        <ele>6.4</ele>
        <time>2020-07-31T20:45:08Z</time>
      </trkpt>
      <trkpt lat="51.228824571385" lon="4.464329943269">
        <ele>2.4</ele>
        <time>2020-07-31T20:45:52Z</time>
      </trkpt>
      <trkpt lat="51.228518967311" lon="4.463924007852">
        <ele>0</ele>
        <time>2020-07-31T20:46:37Z</time>
      </trkpt>
      <trkpt lat="51.228339427013" lon="4.463406844622">
        <ele>0</ele>
        <time>2020-07-31T20:47:44Z</time>
      </trkpt>
      <trkpt lat="51.227938772193" lon="4.463101324367">
        <ele>0.2</ele>
        <time>2020-07-31T20:48:41Z</time>
      </trkpt>
      <trkpt lat="51.227836513013" lon="4.462426413779">
        <ele>0.6</ele>
        <time>2020-07-31T20:49:30Z</time>
      </trkpt>
      <trkpt lat="51.227838189393" lon="4.462192223493">
        <ele>0</ele>
        <time>2020-07-31T20:49:52Z</time>
      </trkpt>
      <trkpt lat="51.227836848289" lon="4.461806404636">
        <ele>0</ele>
        <time>2020-07-31T20:50:17Z</time>
      </trkpt>
      <trkpt lat="51.227876578495" lon="4.461411784784">
        <ele>0.8</ele>
        <time>2020-07-31T20:50:46Z</time>
      </trkpt>
      <trkpt lat="51.227854785555" lon="4.460745172277">
        <ele>8.2</ele>
        <time>2020-07-31T20:51:31Z</time>
      </trkpt>
      <trkpt lat="51.227686141727" lon="4.460722541147">
        <ele>5.4</ele>
        <time>2020-07-31T20:51:49Z</time>
      </trkpt>
      <trkpt lat="51.227651189204" lon="4.460754643824">
        <ele>4.2</ele>
        <time>2020-07-31T20:51:53Z</time>
      </trkpt>
      <trkpt lat="51.227534764613" lon="4.460856903004">
        <ele>3</ele>
        <time>2020-07-31T20:52:05Z</time>
      </trkpt>
      <trkpt lat="51.227469972526" lon="4.460910295707">
        <ele>1.6</ele>
        <time>2020-07-31T20:52:13Z</time>
      </trkpt>
      <trkpt lat="51.22738917101" lon="4.460771826719">
        <ele>0</ele>
        <time>2020-07-31T20:52:31Z</time>
      </trkpt>
      <trkpt lat="51.227295629006" lon="4.460055677183">
        <ele>0</ele>
        <time>2020-07-31T20:53:20Z</time>
      </trkpt>
      <trkpt lat="51.227218012612" lon="4.459630714853">
        <ele>0.2</ele>
        <time>2020-07-31T20:53:50Z</time>
      </trkpt>
      <trkpt lat="51.227047273309" lon="4.459079940204">
        <ele>0</ele>
        <time>2020-07-31T20:54:35Z</time>
      </trkpt>
      <trkpt lat="51.227063869471" lon="4.459059404549">
        <ele>0</ele>
        <time>2020-07-31T20:54:37Z</time>
      </trkpt>
      <trkpt lat="51.227507271981" lon="4.458871649989">
        <ele>0</ele>
        <time>2020-07-31T20:55:23Z</time>
      </trkpt>
      <trkpt lat="51.227922511307" lon="4.458600244067">
        <ele>4.2</ele>
        <time>2020-07-31T20:56:10Z</time>
      </trkpt>
      <trkpt lat="51.227932401949" lon="4.458592616538">
        <ele>4.2</ele>
        <time>2020-07-31T20:56:11Z</time>
      </trkpt>
      <trkpt lat="51.228364069799" lon="4.458346272497">
        <ele>1</ele>
        <time>2020-07-31T20:56:53Z</time>
      </trkpt>
      <trkpt lat="51.228595242601" lon="4.458156757738">
        <ele>0.6</ele>
        <time>2020-07-31T20:57:16Z</time>
      </trkpt>
      <trkpt lat="51.229049206305" lon="4.458048379771">
        <ele>11.4</ele>
        <time>2020-07-31T20:58:07Z</time>
      </trkpt>
      <trkpt lat="51.229201589247" lon="4.458082577923">
        <ele>8.2</ele>
        <time>2020-07-31T20:58:25Z</time>
      </trkpt>
      <trkpt lat="51.229635101115" lon="4.457891470603">
        <ele>12</ele>
        <time>2020-07-31T20:59:15Z</time>
      </trkpt>
      <trkpt lat="51.229721602323" lon="4.457887614929">
        <ele>11</ele>
        <time>2020-07-31T20:59:37Z</time>
      </trkpt>
    </trkseg>
  </trk>
</gpx>